createdAt,value
2017-10-25T00:01:37.798Z,13.80
2017-10-25T00:04:05.535Z,15.27
2017-10-25T00:06:33.250Z,15.43
2017-10-25T00:09:00.969Z,16.35
2017-10-25T00:11:28.739Z,16.30
2017-10-25T00:13:57.234Z,14.10
2017-10-25T00:16:24.966Z,22.45
2017-10-25T00:18:52.710Z,16.75
2017-10-25T00:21:20.428Z,20.08
2017-10-25T00:23:48.166Z,17.73
2017-10-25T00:26:16.013Z,19.52
2017-10-25T00:28:43.878Z,18.10
2017-10-25T00:31:11.747Z,17.65
2017-10-25T00:33:39.612Z,17.00
2017-10-25T00:36:07.364Z,18.50
2017-10-25T00:38:35.094Z,16.70
2017-10-25T00:41:02.842Z,17.23
2017-10-25T00:43:31.490Z,18.95
2017-10-25T00:45:59.245Z,17.58
2017-10-25T00:48:26.990Z,20.95
2017-10-25T00:50:54.713Z,16.48
2017-10-25T00:53:22.435Z,15.40
2017-10-25T00:55:50.229Z,15.85
2017-10-25T00:58:18.021Z,19.35
2017-10-25T01:00:46.583Z,14.32
2017-10-25T01:03:14.316Z,13.40
2017-10-25T01:05:42.078Z,16.05
2017-10-25T01:08:09.834Z,14.30
2017-10-25T01:10:37.554Z,14.25
2017-10-25T01:13:06.070Z,12.05
2017-10-25T01:15:33.834Z,12.48
2017-10-25T01:18:01.578Z,11.57
2017-10-25T01:20:30.217Z,11.50
2017-10-25T01:22:58.085Z,13.82
2017-10-25T01:25:25.951Z,14.75
2017-10-25T01:27:53.921Z,14.80
2017-10-25T01:30:22.462Z,14.65
2017-10-25T01:32:50.372Z,13.73
2017-10-25T01:35:18.173Z,15.63
2017-10-25T01:37:46.727Z,13.43
2017-10-25T01:40:14.511Z,11.27
2017-10-25T01:42:42.302Z,12.23
2017-10-25T01:45:10.150Z,10.88
2017-10-25T01:47:38.806Z,10.98
2017-10-25T01:50:06.595Z,12.48
2017-10-25T01:52:34.377Z,13.52
2017-10-25T01:55:02.922Z,12.30
2017-10-25T01:57:30.673Z,12.73
2017-10-25T01:59:58.461Z,11.07
2017-10-25T02:02:26.192Z,11.55
2017-10-25T02:04:53.918Z,13.80
2017-10-25T02:07:22.434Z,13.75
2017-10-25T02:09:50.225Z,13.45
2017-10-25T02:12:17.978Z,16.83
2017-10-25T02:14:45.718Z,12.93
2017-10-25T02:17:13.465Z,12.37
2017-10-25T02:19:41.226Z,20.65
2017-10-25T02:22:09.730Z,14.00
2017-10-25T02:24:37.635Z,14.73
2017-10-25T02:27:05.382Z,15.13
2017-10-25T02:29:33.121Z,12.15
2017-10-25T02:32:00.838Z,12.05
2017-10-25T02:34:28.561Z,14.07
2017-10-25T02:36:56.278Z,16.23
2017-10-25T02:39:24.839Z,16.95
2017-10-25T02:41:52.637Z,13.70
2017-10-25T02:44:21.290Z,15.23
2017-10-25T02:46:49.014Z,15.52
2017-10-25T02:49:16.819Z,14.48
2017-10-25T02:51:44.542Z,16.08
2017-10-25T02:54:12.274Z,11.52
2017-10-25T02:56:39.981Z,17.65
2017-10-25T02:59:07.701Z,14.98
2017-10-25T03:01:35.422Z,15.43
2017-10-25T03:04:03.157Z,13.50
2017-10-25T03:06:30.887Z,15.68
2017-10-25T03:08:58.598Z,12.00
2017-10-25T03:11:26.353Z,11.38
2017-10-25T03:13:54.084Z,15.43
2017-10-25T03:16:21.926Z,13.00
2017-10-25T03:18:49.662Z,12.60
2017-10-25T03:21:17.406Z,10.75
2017-10-25T03:23:45.163Z,15.13
2017-10-25T03:26:13.662Z,16.45
2017-10-25T03:28:41.470Z,11.25
2017-10-25T03:31:09.184Z,11.10
2017-10-25T03:33:37.002Z,13.23
2017-10-25T03:36:04.868Z,12.65
2017-10-25T03:38:32.738Z,15.63
2017-10-25T03:41:00.466Z,17.20
2017-10-25T03:43:28.206Z,14.15
2017-10-25T03:45:56.734Z,18.77
2017-10-25T03:48:24.448Z,14.70
2017-10-25T03:50:53.098Z,14.07
2017-10-25T03:53:20.960Z,14.70
2017-10-25T03:55:48.683Z,17.02
2017-10-25T03:58:16.394Z,15.35
2017-10-25T04:00:44.254Z,14.85
2017-10-25T04:03:12.121Z,13.93
2017-10-25T04:05:39.989Z,14.60
2017-10-25T04:08:07.711Z,12.82
2017-10-25T04:10:35.518Z,13.82
2017-10-25T04:13:03.242Z,14.68
2017-10-25T04:15:31.050Z,12.88
2017-10-25T04:17:59.019Z,14.68
2017-10-25T04:20:27.911Z,15.38
2017-10-25T04:22:55.781Z,16.17
2017-10-25T04:25:23.645Z,15.02
2017-10-25T04:27:51.527Z,14.70
2017-10-25T04:30:19.254Z,16.73
2017-10-25T04:32:47.008Z,13.68
2017-10-25T04:35:14.722Z,16.60
2017-10-25T04:37:43.493Z,14.52
2017-10-25T04:40:11.361Z,16.90
2017-10-25T04:42:39.092Z,16.55
2017-10-25T04:45:06.819Z,15.68
2017-10-25T04:47:35.310Z,13.62
2017-10-25T04:50:03.843Z,18.55
2017-10-25T04:52:31.562Z,15.20
2017-10-25T04:55:00.043Z,11.65
2017-10-25T04:57:28.531Z,20.62
2017-10-25T04:59:57.022Z,12.30
2017-10-25T05:02:24.752Z,16.50
2017-10-25T05:04:52.823Z,15.85
2017-10-25T05:07:20.545Z,12.45
2017-10-25T05:09:48.267Z,12.32
2017-10-25T05:12:17.119Z,11.68
2017-10-25T05:14:44.897Z,14.27
2017-10-25T05:17:12.622Z,13.90
2017-10-25T05:19:40.360Z,10.98
2017-10-25T05:22:08.845Z,12.85
2017-10-25T05:24:36.576Z,14.87
2017-10-25T05:27:04.294Z,10.13
2017-10-25T05:29:32.055Z,11.82
2017-10-25T05:31:59.924Z,12.75
2017-10-25T05:34:27.667Z,13.40
2017-10-25T05:36:56.189Z,14.60
2017-10-25T05:39:24.051Z,15.07
2017-10-25T05:41:51.774Z,13.65
2017-10-25T05:44:20.303Z,15.75
2017-10-25T05:46:48.103Z,14.02
2017-10-25T05:49:15.869Z,16.40
2017-10-25T05:51:43.593Z,18.27
2017-10-25T05:54:11.350Z,16.73
2017-10-25T05:56:39.090Z,14.45
2017-10-25T05:59:06.810Z,16.55
2017-10-25T06:01:34.534Z,16.77
2017-10-25T06:04:02.260Z,14.35
2017-10-25T06:06:29.978Z,16.35
2017-10-25T06:08:57.722Z,21.15
2017-10-25T06:11:25.450Z,17.02
2017-10-25T06:13:53.166Z,20.55
2017-10-25T06:16:20.910Z,16.05
2017-10-25T06:18:48.633Z,16.92
2017-10-25T06:21:16.350Z,15.82
2017-10-25T06:23:44.067Z,16.12
2017-10-25T06:26:11.790Z,14.87
2017-10-25T06:28:39.590Z,17.90
2017-10-25T06:31:07.334Z,14.15
2017-10-25T06:33:35.079Z,13.98
2017-10-25T06:36:02.810Z,12.10
2017-10-25T06:38:31.302Z,15.57
2017-10-25T06:40:59.058Z,16.55
2017-10-25T06:43:27.587Z,14.00
2017-10-25T06:45:55.314Z,11.77
2017-10-25T06:48:23.079Z,11.02
2017-10-25T06:50:50.831Z,9.30
2017-10-25T06:53:19.330Z,11.23
2017-10-25T06:55:47.086Z,12.40
2017-10-25T06:58:15.582Z,12.13
2017-10-25T07:00:43.327Z,10.07
2017-10-25T07:03:11.082Z,11.32
2017-10-25T07:05:39.562Z,9.45
2017-10-25T07:08:08.038Z,8.93
2017-10-25T07:10:36.541Z,10.00
2017-10-25T07:13:04.283Z,14.05
2017-10-25T07:15:32.001Z,9.30
2017-10-25T07:17:59.726Z,12.20
2017-10-25T07:20:28.213Z,10.90
2017-10-25T07:22:56.714Z,11.30
2017-10-25T07:25:24.434Z,13.73
2017-10-25T07:27:52.171Z,12.23
2017-10-25T07:30:19.910Z,12.50
2017-10-25T07:32:47.629Z,11.07
2017-10-25T07:35:16.131Z,16.30
2017-10-25T07:37:44.674Z,11.23
2017-10-25T07:40:12.390Z,9.65
2017-10-25T07:42:40.142Z,11.70
2017-10-25T07:45:08.647Z,14.95
2017-10-25T07:47:36.366Z,13.05
2017-10-25T07:50:04.174Z,11.05
2017-10-25T07:52:31.909Z,12.07
2017-10-25T07:55:00.405Z,14.27
2017-10-25T07:57:28.897Z,12.80
2017-10-25T07:59:56.623Z,12.32
2017-10-25T08:02:24.366Z,14.23
2017-10-25T08:04:52.099Z,14.05
2017-10-25T08:07:19.826Z,15.50
2017-10-25T08:09:48.322Z,12.05
2017-10-25T08:12:16.832Z,19.10
2017-10-25T08:14:44.595Z,16.27
2017-10-25T08:17:12.344Z,13.25
2017-10-25T08:19:40.072Z,16.17
2017-10-25T08:22:07.810Z,16.92
2017-10-25T08:24:35.533Z,10.77
2017-10-25T08:27:03.261Z,10.93
2017-10-25T08:29:30.994Z,12.85
2017-10-25T08:31:58.713Z,15.40
2017-10-25T08:34:27.210Z,14.00
2017-10-25T08:36:54.937Z,12.85
2017-10-25T08:39:22.718Z,10.88
2017-10-25T08:41:51.213Z,12.00
2017-10-25T08:44:18.975Z,11.30
2017-10-25T08:46:47.481Z,10.50
2017-10-25T08:49:15.242Z,9.75
2017-10-25T08:51:43.022Z,8.55
2017-10-25T08:54:10.771Z,11.05
2017-10-25T08:56:38.568Z,10.30
2017-10-25T08:59:06.378Z,10.70
2017-10-25T09:01:34.928Z,10.32
2017-10-25T09:04:02.716Z,7.82
2017-10-25T09:06:30.474Z,8.15
2017-10-25T09:08:58.303Z,16.05
2017-10-25T09:11:26.114Z,7.35
2017-10-25T09:13:53.887Z,8.05
2017-10-25T09:16:22.409Z,12.43
2017-10-25T09:18:50.133Z,8.93
2017-10-25T09:21:18.633Z,9.43
2017-10-25T09:23:46.343Z,7.70
2017-10-25T09:26:14.075Z,12.77
2017-10-25T09:28:41.806Z,10.18
2017-10-25T09:31:10.298Z,5.72
2017-10-25T09:33:38.803Z,6.37
2017-10-25T09:36:06.542Z,9.02
2017-10-25T09:38:35.032Z,10.68
2017-10-25T09:41:02.766Z,6.32
2017-10-25T09:43:30.485Z,9.00
2017-10-25T09:45:58.224Z,6.57
2017-10-25T09:48:25.938Z,9.73
2017-10-25T09:50:53.697Z,6.93
2017-10-25T09:53:21.410Z,7.20
2017-10-25T09:55:49.906Z,8.18
2017-10-25T09:58:17.622Z,7.30
2017-10-25T10:00:45.347Z,6.97
2017-10-25T10:03:13.071Z,8.32
2017-10-25T10:05:41.557Z,8.98
2017-10-25T10:08:10.045Z,6.80
2017-10-25T10:10:38.521Z,5.30
2017-10-25T10:13:07.001Z,6.45
2017-10-25T10:15:35.559Z,7.60
2017-10-25T10:18:03.274Z,4.35
2017-10-25T10:20:31.011Z,7.47
2017-10-25T10:22:59.510Z,7.05
2017-10-25T10:25:27.257Z,4.60
2017-10-25T10:27:55.747Z,6.82
2017-10-25T10:30:24.294Z,5.32
2017-10-25T10:32:52.281Z,4.68
2017-10-25T10:35:20.054Z,5.05
2017-10-25T10:37:47.765Z,5.62
2017-10-25T10:40:15.502Z,4.10
2017-10-25T10:42:43.982Z,8.30
2017-10-25T10:45:13.558Z,6.03
2017-10-25T10:47:41.302Z,4.85
2017-10-25T10:50:09.016Z,5.68
2017-10-25T10:52:37.498Z,5.57
2017-10-25T10:55:05.976Z,4.22
2017-10-25T10:57:34.459Z,4.68
2017-10-25T11:00:02.998Z,4.10
2017-10-25T11:02:30.777Z,9.88
2017-10-25T11:04:58.520Z,5.97
2017-10-25T11:07:26.282Z,4.28
2017-10-25T11:09:54.048Z,4.40
2017-10-25T11:12:21.769Z,5.12
2017-10-25T11:14:50.243Z,8.43
2017-10-25T11:17:18.751Z,5.40
2017-10-25T11:19:46.489Z,5.68
2017-10-25T11:22:14.994Z,10.73
2017-10-25T11:24:42.699Z,7.90
2017-10-25T11:27:10.464Z,6.47
2017-10-25T11:29:38.223Z,10.45
2017-10-25T11:32:06.003Z,5.93
2017-10-25T11:34:33.715Z,7.03
2017-10-25T11:37:01.464Z,5.50
2017-10-25T11:39:29.953Z,6.55
2017-10-25T11:41:58.746Z,8.13
2017-10-25T11:44:26.459Z,8.23
2017-10-25T11:46:54.191Z,8.40
2017-10-25T11:49:21.904Z,5.95
2017-10-25T11:51:49.630Z,5.75
2017-10-25T11:54:17.342Z,5.60
2017-10-25T11:56:45.875Z,9.93
2017-10-25T11:59:13.597Z,7.68
2017-10-25T12:01:42.083Z,5.90
2017-10-25T12:04:10.566Z,4.47
2017-10-25T12:06:39.045Z,4.43
2017-10-25T12:09:07.522Z,5.55
2017-10-25T12:11:36.005Z,6.85
2017-10-25T12:14:04.487Z,4.95
2017-10-25T12:16:32.965Z,4.97
2017-10-25T12:19:01.447Z,3.97
2017-10-25T12:21:29.945Z,7.35
2017-10-25T12:23:57.674Z,5.97
2017-10-25T12:26:25.386Z,3.20
2017-10-25T12:28:53.094Z,8.38
2017-10-25T12:31:20.816Z,4.22
2017-10-25T12:33:48.525Z,5.22
2017-10-25T12:36:16.237Z,4.65
2017-10-25T12:38:43.942Z,4.12
2017-10-25T12:41:11.661Z,4.75
2017-10-25T12:43:39.374Z,3.95
2017-10-25T12:46:07.158Z,3.78
2017-10-25T12:48:34.866Z,2.92
2017-10-25T12:51:02.588Z,2.78
2017-10-25T12:53:31.062Z,2.85
2017-10-25T12:55:58.771Z,2.20
2017-10-25T12:58:26.515Z,2.90
2017-10-25T13:00:54.235Z,3.05
2017-10-25T13:03:21.947Z,3.95
2017-10-25T13:05:49.694Z,3.05
2017-10-25T13:10:52.904Z,2.62
2017-10-25T13:13:22.954Z,2.80
2017-10-25T13:15:54.186Z,3.87
2017-10-25T13:18:22.682Z,2.95
2017-10-25T13:20:50.401Z,4.25
2017-10-25T13:23:18.130Z,2.75
2017-10-25T13:25:45.842Z,3.50
2017-10-25T13:28:14.327Z,2.58
2017-10-25T13:30:42.806Z,3.65
2017-10-25T13:33:11.286Z,4.87
2017-10-25T13:35:39.769Z,3.08
2017-10-25T13:38:08.253Z,4.35
2017-10-25T13:40:36.726Z,3.03
2017-10-25T13:43:05.210Z,3.75
2017-10-25T13:45:33.700Z,3.20
2017-10-25T13:48:02.188Z,3.33
2017-10-25T13:50:30.668Z,4.90
2017-10-25T13:52:59.146Z,2.60
2017-10-25T13:55:27.623Z,3.33
2017-10-25T13:57:56.098Z,2.60
2017-10-25T14:00:23.815Z,3.28
2017-10-25T14:02:51.571Z,4.55
2017-10-25T14:05:19.330Z,2.70
2017-10-25T14:07:47.042Z,3.40
2017-10-25T14:10:14.757Z,2.60
2017-10-25T14:12:42.470Z,2.80
2017-10-25T14:15:10.197Z,8.77
2017-10-25T14:17:37.919Z,3.85
2017-10-25T14:20:06.474Z,7.12
2017-10-25T14:22:34.232Z,3.00
2017-10-25T14:25:01.983Z,3.10
2017-10-25T14:27:41.531Z,3.08
2017-10-25T14:30:09.251Z,3.80
2017-10-25T14:32:36.970Z,4.47
2017-10-25T14:35:05.449Z,2.80
2017-10-25T14:37:33.981Z,5.90
2017-10-25T14:40:01.760Z,6.62
2017-10-25T14:42:29.495Z,4.28
2017-10-25T14:44:58.003Z,4.57
2017-10-25T14:47:25.731Z,3.80
2017-10-25T14:49:53.502Z,3.28
2017-10-25T14:52:21.999Z,3.95
2017-10-25T14:54:50.483Z,4.95
2017-10-25T14:57:18.973Z,3.72
2017-10-25T14:59:46.690Z,4.68
2017-10-25T15:02:14.418Z,3.42
2017-10-25T15:04:42.149Z,3.72
2017-10-25T15:07:10.642Z,4.80
2017-10-25T15:09:38.362Z,3.42
2017-10-25T15:12:06.114Z,3.95
2017-10-25T15:14:33.828Z,4.07
2017-10-25T15:17:02.313Z,4.85
2017-10-25T15:19:30.806Z,4.45
2017-10-25T15:21:58.509Z,5.30
2017-10-25T15:24:26.229Z,4.87
2017-10-25T15:26:53.951Z,5.57
2017-10-25T15:29:21.658Z,8.27
2017-10-25T15:31:49.362Z,4.03
2017-10-25T15:34:17.070Z,5.55
2017-10-25T15:36:45.550Z,5.82
2017-10-25T15:39:14.038Z,5.72
2017-10-25T15:41:42.522Z,9.57
2017-10-25T15:44:10.246Z,5.05
2017-10-25T15:46:37.962Z,5.30
2017-10-25T15:49:05.698Z,6.45
2017-10-25T15:51:34.207Z,5.00
2017-10-25T15:54:01.914Z,8.82
2017-10-25T15:56:29.633Z,5.65
2017-10-25T15:58:57.342Z,8.27
2017-10-25T16:01:25.055Z,9.15
2017-10-25T16:03:52.774Z,7.68
2017-10-25T16:06:20.497Z,8.10
2017-10-25T16:08:48.210Z,6.62
2017-10-25T16:11:15.926Z,11.27
2017-10-25T16:13:43.640Z,7.32
2017-10-25T16:16:11.438Z,6.35
2017-10-25T16:18:39.193Z,10.18
2017-10-25T16:21:07.674Z,6.05
2017-10-25T16:23:36.167Z,6.80
2017-10-25T16:26:03.886Z,8.98
2017-10-25T16:28:31.601Z,7.47
2017-10-25T16:30:59.315Z,6.20
2017-10-25T16:33:27.086Z,5.87
2017-10-25T16:35:54.801Z,6.18
2017-10-25T16:38:22.522Z,6.65
2017-10-25T16:40:50.246Z,8.25
2017-10-25T16:43:18.002Z,8.68
2017-10-25T16:45:45.735Z,7.57
2017-10-25T16:48:14.221Z,7.43
2017-10-25T16:50:42.714Z,9.85
2017-10-25T16:53:10.433Z,6.45
2017-10-25T16:55:38.158Z,6.47
2017-10-25T16:58:05.923Z,10.18
2017-10-25T17:00:33.694Z,6.82
2017-10-25T17:03:01.410Z,7.87
2017-10-25T17:05:29.894Z,7.00
2017-10-25T17:07:58.377Z,7.75
2017-10-25T17:10:26.874Z,9.43
2017-10-25T17:12:54.590Z,7.82
2017-10-25T17:15:22.306Z,6.32
2017-10-25T17:17:50.041Z,6.35
2017-10-25T17:20:17.759Z,7.50
2017-10-25T17:22:45.514Z,15.10
2017-10-25T17:25:13.410Z,7.40
2017-10-25T17:27:41.146Z,6.82
2017-10-25T17:30:08.906Z,6.15
2017-10-25T17:32:36.705Z,8.07
2017-10-25T17:35:04.573Z,6.00
2017-10-25T17:37:32.291Z,7.43
2017-10-25T17:40:00.014Z,5.25
2017-10-25T17:42:27.866Z,10.77
2017-10-25T17:44:55.581Z,5.53
2017-10-25T17:47:23.499Z,6.20
2017-10-25T17:49:51.294Z,7.57
2017-10-25T17:52:19.018Z,5.37
2017-10-25T17:54:46.754Z,6.70
2017-10-25T17:57:14.561Z,5.68
2017-10-25T17:59:42.277Z,5.30
2017-10-25T18:02:09.994Z,6.28
2017-10-25T18:04:37.714Z,8.50
2017-10-25T18:07:05.440Z,7.85
2017-10-25T18:09:33.175Z,5.12
2017-10-25T18:12:01.046Z,6.87
2017-10-25T18:14:28.914Z,5.35
2017-10-25T18:16:56.780Z,5.87
2017-10-25T18:19:24.647Z,5.85
2017-10-25T18:21:52.515Z,6.00
2017-10-25T18:24:20.383Z,4.90
2017-10-25T18:26:48.250Z,8.45
2017-10-25T18:29:16.052Z,8.88
2017-10-25T18:31:44.625Z,6.82
2017-10-25T18:34:12.467Z,7.57
2017-10-25T18:36:40.334Z,6.72
2017-10-25T18:39:08.200Z,6.10
2017-10-25T18:41:35.910Z,7.72
2017-10-25T18:44:04.550Z,8.20
2017-10-25T18:46:32.417Z,9.35
2017-10-25T18:49:00.288Z,9.43
2017-10-25T18:51:28.151Z,12.30
2017-10-25T18:53:56.019Z,14.73
2017-10-25T18:56:23.734Z,8.32
2017-10-25T18:58:51.447Z,9.93
2017-10-25T19:01:19.168Z,7.97
2017-10-25T19:03:46.895Z,8.45
2017-10-25T19:06:14.844Z,10.10
2017-10-25T19:08:42.710Z,9.20
2017-10-25T19:11:10.578Z,6.53
2017-10-25T19:13:38.445Z,9.70
2017-10-25T19:16:06.312Z,11.95
2017-10-25T19:18:34.175Z,14.87
2017-10-25T19:21:02.048Z,10.52
2017-10-25T19:23:29.914Z,7.25
2017-10-25T19:25:57.777Z,6.25
2017-10-25T19:28:25.650Z,10.15
2017-10-25T19:30:53.390Z,8.13
2017-10-25T19:33:21.113Z,7.65
2017-10-25T19:35:49.593Z,7.65
2017-10-25T19:38:18.115Z,10.05
2017-10-25T19:40:46.010Z,6.12
2017-10-25T19:43:13.877Z,8.90
2017-10-25T19:45:41.634Z,8.05
2017-10-25T19:48:10.109Z,7.12
2017-10-25T19:50:37.991Z,9.10
2017-10-25T19:53:05.835Z,10.60
2017-10-25T19:55:33.550Z,12.90
2017-10-25T19:58:02.042Z,12.15
2017-10-25T20:00:30.530Z,10.45
2017-10-25T20:02:59.010Z,11.75
2017-10-25T20:05:27.512Z,11.25
2017-10-25T20:07:55.227Z,7.95
2017-10-25T20:10:22.938Z,8.40
2017-10-25T20:12:50.654Z,9.38
2017-10-25T20:15:18.509Z,13.75
2017-10-25T20:17:46.375Z,8.75
2017-10-25T20:20:14.242Z,10.27
2017-10-25T20:22:42.110Z,7.78
2017-10-25T20:25:09.977Z,6.43
2017-10-25T20:27:37.844Z,5.90
2017-10-25T20:30:05.712Z,7.93
2017-10-25T20:32:33.579Z,6.15
2017-10-25T20:35:01.446Z,6.62
2017-10-25T20:37:29.314Z,5.97
2017-10-25T20:39:57.180Z,7.12
2017-10-25T20:42:25.048Z,13.13
2017-10-25T20:44:52.915Z,6.53
2017-10-25T20:47:20.783Z,6.10
2017-10-25T20:49:48.653Z,8.18
2017-10-25T20:52:16.518Z,9.65
2017-10-25T20:54:44.384Z,8.15
2017-10-25T20:57:12.252Z,14.48
2017-10-25T20:59:40.119Z,13.35
2017-10-25T21:02:07.988Z,7.53
2017-10-25T21:04:35.855Z,8.93
2017-10-25T21:07:03.726Z,11.23
2017-10-25T21:09:31.589Z,6.90
2017-10-25T21:11:59.456Z,9.82
2017-10-25T21:14:27.322Z,4.07
2017-10-25T21:16:55.192Z,4.78
2017-10-25T21:19:23.057Z,5.37
2017-10-25T21:21:50.925Z,7.65
2017-10-25T21:24:18.793Z,5.40
2017-10-25T21:26:46.967Z,5.45
2017-10-25T21:29:14.835Z,5.47
2017-10-25T21:31:42.702Z,6.45
2017-10-25T21:34:10.568Z,6.07
2017-10-25T21:36:38.436Z,9.32
2017-10-25T21:39:06.303Z,7.90
2017-10-25T21:41:34.171Z,16.37
2017-10-25T21:44:02.038Z,13.18
2017-10-25T21:46:29.906Z,18.30
2017-10-25T21:48:57.708Z,14.45
2017-10-25T21:51:26.254Z,17.05
2017-10-25T21:53:54.123Z,14.25
2017-10-25T21:56:21.995Z,11.43
2017-10-25T21:58:49.859Z,8.48
2017-10-25T22:01:17.724Z,10.20
2017-10-25T22:03:45.591Z,7.75
2017-10-25T22:06:13.458Z,7.82
2017-10-25T22:08:41.326Z,9.38
2017-10-25T22:11:09.194Z,6.95
2017-10-25T22:13:37.061Z,7.70
2017-10-25T22:16:04.929Z,5.97
2017-10-25T22:18:32.796Z,6.57
2017-10-25T22:21:00.663Z,7.15
2017-10-25T22:23:28.530Z,11.32
2017-10-25T22:25:56.397Z,10.65
2017-10-25T22:28:24.264Z,8.05
2017-10-25T22:30:52.132Z,7.62
2017-10-25T22:33:20.000Z,11.00
2017-10-25T22:35:47.867Z,9.40
2017-10-25T22:38:15.735Z,8.98
2017-10-25T22:40:43.601Z,6.30
2017-10-25T22:43:11.366Z,5.50
2017-10-25T22:45:39.234Z,6.62
2017-10-25T22:48:07.101Z,6.00
2017-10-25T22:50:34.968Z,9.15
2017-10-25T22:53:02.836Z,5.62
2017-10-25T22:55:30.702Z,6.60
2017-10-25T22:57:58.467Z,7.18
2017-10-25T23:00:26.335Z,11.43
2017-10-25T23:02:54.202Z,10.18
2017-10-25T23:05:22.070Z,10.68
2017-10-25T23:07:49.940Z,16.00
2017-10-25T23:10:17.804Z,13.98
2017-10-25T23:12:45.671Z,15.10
2017-10-25T23:15:13.544Z,16.08
2017-10-25T23:17:41.408Z,9.10
2017-10-25T23:20:09.274Z,10.23
2017-10-25T23:22:37.146Z,11.20
2017-10-25T23:25:05.011Z,11.40
2017-10-25T23:27:32.880Z,11.90
2017-10-25T23:30:00.743Z,11.27
2017-10-25T23:32:28.613Z,8.68
2017-10-25T23:34:56.477Z,13.05
2017-10-25T23:37:24.345Z,15.50
2017-10-25T23:39:52.108Z,13.65
2017-10-25T23:42:19.987Z,10.35
2017-10-25T23:44:47.777Z,10.32
2017-10-25T23:47:16.428Z,10.00
2017-10-25T23:49:44.295Z,9.45
2017-10-25T23:52:12.163Z,10.25
2017-10-25T23:54:40.031Z,22.42
2017-10-25T23:57:07.897Z,14.75
2017-10-25T23:59:35.765Z,20.58
